sensor_id;sensor_type;location;lat;lon;timestamp;pressure;altitude;pressure_sealevel;temperature;humidity
56241;BME280;42155;53.096;23.226;2022-07-29T00:00:25;100546.94;;;15.02;79.72
56241;BME280;42155;53.096;23.226;2022-07-29T00:02:27;100543.31;;;15.03;79.24
56241;BME280;42155;53.096;23.226;2022-07-29T00:04:27;100538.06;;;15.01;79.07
56241;BME280;42155;53.096;23.226;2022-07-29T00:06:28;100541.59;;;15.02;79.58
56241;BME280;42155;53.096;23.226;2022-07-29T00:08:28;100530.03;;;14.92;79.27
56241;BME280;42155;53.096;23.226;2022-07-29T00:10:28;100541.59;;;15.02;78.70
56241;BME280;42155;53.096;23.226;2022-07-29T00:12:29;100542.47;;;15.02;77.70
56241;BME280;42155;53.096;23.226;2022-07-29T00:14:29;100548.06;;;14.99;77.09
56241;BME280;42155;53.096;23.226;2022-07-29T00:16:29;100545.09;;;14.93;76.48
56241;BME280;42155;53.096;23.226;2022-07-29T00:18:30;100550.88;;;14.88;76.97
56241;BME280;42155;53.096;23.226;2022-07-29T00:20:30;100549.44;;;14.84;76.18
56241;BME280;42155;53.096;23.226;2022-07-29T00:22:31;100546.47;;;14.77;75.92
56241;BME280;42155;53.096;23.226;2022-07-29T00:24:31;100537.56;;;14.67;76.04
56241;BME280;42155;53.096;23.226;2022-07-29T00:26:34;100549.38;;;14.65;75.97
56241;BME280;42155;53.096;23.226;2022-07-29T00:28:34;100545.41;;;14.59;75.63
56241;BME280;42155;53.096;23.226;2022-07-29T00:30:35;100489.84;;;14.22;75.65
56241;BME280;42155;53.096;23.226;2022-07-29T00:32:35;100550.94;;;14.46;75.68
56241;BME280;42155;53.096;23.226;2022-07-29T00:34:35;100539.72;;;14.43;75.30
56241;BME280;42155;53.096;23.226;2022-07-29T00:36:36;100552.06;;;14.44;75.14
56241;BME280;42155;53.096;23.226;2022-07-29T00:38:36;100548.97;;;14.39;75.26
56241;BME280;42155;53.096;23.226;2022-07-29T00:40:36;100551.19;;;14.34;75.59
56241;BME280;42155;53.096;23.226;2022-07-29T00:42:44;100549.75;;;14.30;75.58
56241;BME280;42155;53.096;23.226;2022-07-29T00:44:45;100509.28;;;14.04;75.35
56241;BME280;42155;53.096;23.226;2022-07-29T00:46:45;100546.66;;;14.24;75.57
56241;BME280;42155;53.096;23.226;2022-07-29T00:48:45;100543.25;;;14.22;74.98
56241;BME280;42155;53.096;23.226;2022-07-29T00:50:46;100540.13;;;14.17;75.38
56241;BME280;42155;53.096;23.226;2022-07-29T00:52:46;100548.53;;;14.13;75.36
56241;BME280;42155;53.096;23.226;2022-07-29T00:54:47;100549.66;;;14.10;75.32
56241;BME280;42155;53.096;23.226;2022-07-29T00:56:48;100553.56;;;14.06;75.72
56241;BME280;42155;53.096;23.226;2022-07-29T00:58:50;100550.16;;;14.04;75.22
56241;BME280;42155;53.096;23.226;2022-07-29T01:00:51;100548.03;;;13.98;74.88
56241;BME280;42155;53.096;23.226;2022-07-29T01:02:52;100548.28;;;13.95;75.25
56241;BME280;42155;53.096;23.226;2022-07-29T01:04:53;100524.75;;;13.79;75.48
56241;BME280;42155;53.096;23.226;2022-07-29T01:06:54;100543.47;;;13.89;75.43
56241;BME280;42155;53.096;23.226;2022-07-29T01:08:55;100551.75;;;13.86;75.21
56241;BME280;42155;53.096;23.226;2022-07-29T01:10:56;100528.06;;;13.71;75.10
56241;BME280;42155;53.096;23.226;2022-07-29T01:12:58;100548.63;;;13.81;75.29
56241;BME280;42155;53.096;23.226;2022-07-29T01:15:02;100545.25;;;13.79;75.36
56241;BME280;42155;53.096;23.226;2022-07-29T01:21:54;100549.38;;;13.71;75.03
56241;BME280;42155;53.096;23.226;2022-07-29T01:26:27;100545.28;;;13.67;75.33
56241;BME280;42155;53.096;23.226;2022-07-29T01:29:12;100549.31;;;13.62;74.78
56241;BME280;42155;53.096;23.226;2022-07-29T01:31:06;100512.09;;;13.39;75.15
56241;BME280;42155;53.096;23.226;2022-07-29T01:33:10;100540.25;;;13.53;74.91
56241;BME280;42155;53.096;23.226;2022-07-29T01:35:21;100544.91;;;13.51;75.49
56241;BME280;42155;53.096;23.226;2022-07-29T01:37:29;100541.50;;;13.49;75.00
56241;BME280;42155;53.096;23.226;2022-07-29T01:39:35;100547.09;;;13.46;75.54
56241;BME280;42155;53.096;23.226;2022-07-29T01:41:42;100548.06;;;13.45;75.19
56241;BME280;42155;53.096;23.226;2022-07-29T01:43:59;100549.16;;;13.42;74.99
56241;BME280;42155;53.096;23.226;2022-07-29T01:46:04;100541.41;;;13.39;75.01
56241;BME280;42155;53.096;23.226;2022-07-29T01:48:18;100543.75;;;13.33;75.06
56241;BME280;42155;53.096;23.226;2022-07-29T01:50:21;100548.50;;;13.29;75.49
56241;BME280;42155;53.096;23.226;2022-07-29T01:53:09;100536.28;;;13.27;75.54
56241;BME280;42155;53.096;23.226;2022-07-29T01:54:53;100546.19;;;13.24;76.30
56241;BME280;42155;53.096;23.226;2022-07-29T01:56:56;100538.41;;;13.21;76.84
56241;BME280;42155;53.096;23.226;2022-07-29T01:58:59;100537.56;;;13.21;77.02
56241;BME280;42155;53.096;23.226;2022-07-29T02:01:01;100551.75;;;13.21;77.37
56241;BME280;42155;53.096;23.226;2022-07-29T02:03:07;100538.56;;;13.20;77.18
56241;BME280;42155;53.096;23.226;2022-07-29T02:05:12;100540.63;;;13.16;77.23
56241;BME280;42155;53.096;23.226;2022-07-29T02:07:18;100538.22;;;13.13;77.67
56241;BME280;42155;53.096;23.226;2022-07-29T02:09:19;100551.03;;;13.19;77.68
56241;BME280;42155;53.096;23.226;2022-07-29T02:11:21;100551.16;;;13.18;77.12
56241;BME280;42155;53.096;23.226;2022-07-29T02:13:23;100555.91;;;13.14;76.81
56241;BME280;42155;53.096;23.226;2022-07-29T02:15:29;100550.09;;;13.09;77.18
56241;BME280;42155;53.096;23.226;2022-07-29T02:17:42;100532.66;;;12.94;77.64
56241;BME280;42155;53.096;23.226;2022-07-29T02:19:44;100553.75;;;13.08;78.56
56241;BME280;42155;53.096;23.226;2022-07-29T02:21:46;100555.16;;;13.12;78.06
56241;BME280;42155;53.096;23.226;2022-07-29T02:23:48;100555.06;;;13.14;77.46
56241;BME280;42155;53.096;23.226;2022-07-29T02:25:52;100550.91;;;13.21;78.41
56241;BME280;42155;53.096;23.226;2022-07-29T02:27:54;100542.09;;;13.09;77.89
56241;BME280;42155;53.096;23.226;2022-07-29T02:29:57;100568.00;;;13.18;77.88
56241;BME280;42155;53.096;23.226;2022-07-29T02:31:59;100567.41;;;13.15;78.58
56241;BME280;42155;53.096;23.226;2022-07-29T02:34:02;100558.09;;;13.09;78.51
56241;BME280;42155;53.096;23.226;2022-07-29T02:36:04;100555.44;;;13.09;79.70
56241;BME280;42155;53.096;23.226;2022-07-29T02:38:04;100557.34;;;13.07;79.49
56241;BME280;42155;53.096;23.226;2022-07-29T02:40:09;100556.50;;;13.07;80.30
56241;BME280;42155;53.096;23.226;2022-07-29T02:42:14;100556.66;;;13.05;80.45
56241;BME280;42155;53.096;23.226;2022-07-29T02:44:18;100551.06;;;13.08;80.59
56241;BME280;42155;53.096;23.226;2022-07-29T02:46:23;100550.09;;;13.09;80.75
56241;BME280;42155;53.096;23.226;2022-07-29T02:48:35;100563.06;;;13.14;80.40
56241;BME280;42155;53.096;23.226;2022-07-29T02:50:42;100557.34;;;13.18;81.02
56241;BME280;42155;53.096;23.226;2022-07-29T02:52:47;100566.03;;;13.20;81.26
56241;BME280;42155;53.096;23.226;2022-07-29T02:54:57;100556.72;;;13.26;80.97
56241;BME280;42155;53.096;23.226;2022-07-29T02:57:01;100559.75;;;13.33;80.50
56241;BME280;42155;53.096;23.226;2022-07-29T02:59:08;100548.34;;;13.31;80.30
56241;BME280;42155;53.096;23.226;2022-07-29T03:01:21;100559.22;;;13.39;82.16
56241;BME280;42155;53.096;23.226;2022-07-29T03:03:25;100558.16;;;13.41;80.87
56241;BME280;42155;53.096;23.226;2022-07-29T03:05:29;100543.38;;;13.37;80.99
56241;BME280;42155;53.096;23.226;2022-07-29T03:07:30;100566.22;;;13.51;80.63
56241;BME280;42155;53.096;23.226;2022-07-29T03:09:31;100568.38;;;13.57;81.01
56241;BME280;42155;53.096;23.226;2022-07-29T03:11:33;100559.38;;;13.58;81.10
56241;BME280;42155;53.096;23.226;2022-07-29T03:13:35;100569.28;;;13.67;80.83
56241;BME280;42155;53.096;23.226;2022-07-29T03:15:36;100569.19;;;13.69;80.57
56241;BME280;42155;53.096;23.226;2022-07-29T03:17:37;100567.22;;;13.71;80.29
56241;BME280;42155;53.096;23.226;2022-07-29T03:19:39;100566.13;;;13.73;80.11
56241;BME280;42155;53.096;23.226;2022-07-29T03:21:39;100566.31;;;13.82;80.02
56241;BME280;42155;53.096;23.226;2022-07-29T03:23:43;100569.72;;;13.84;80.04
56241;BME280;42155;53.096;23.226;2022-07-29T03:25:45;100566.59;;;13.79;80.26
56241;BME280;42155;53.096;23.226;2022-07-29T03:27:46;100570.25;;;13.78;80.89
56241;BME280;42155;53.096;23.226;2022-07-29T03:29:46;100573.59;;;13.80;80.32
56241;BME280;42155;53.096;23.226;2022-07-29T03:31:47;100553.03;;;13.70;80.51
56241;BME280;42155;53.096;23.226;2022-07-29T03:33:47;100550.13;;;13.73;80.97
56241;BME280;42155;53.096;23.226;2022-07-29T03:35:48;100573.38;;;13.83;80.59
56241;BME280;42155;53.096;23.226;2022-07-29T03:37:48;100565.59;;;13.80;81.21
56241;BME280;42155;53.096;23.226;2022-07-29T03:39:49;100570.41;;;13.86;81.32
56241;BME280;42155;53.096;23.226;2022-07-29T03:41:55;100573.53;;;13.91;81.08
56241;BME280;42155;53.096;23.226;2022-07-29T03:43:56;100560.47;;;13.88;80.97
56241;BME280;42155;53.096;23.226;2022-07-29T03:45:59;100572.69;;;13.90;81.10
56241;BME280;42155;53.096;23.226;2022-07-29T03:48:07;100577.19;;;14.11;81.08
56241;BME280;42155;53.096;23.226;2022-07-29T03:50:10;100567.28;;;15.53;78.08
56241;BME280;42155;53.096;23.226;2022-07-29T03:52:12;100564.09;;;17.81;71.57
56241;BME280;42155;53.096;23.226;2022-07-29T03:54:12;100562.59;;;19.90;65.55
56241;BME280;42155;53.096;23.226;2022-07-29T03:56:15;100550.03;;;21.56;60.38
56241;BME280;42155;53.096;23.226;2022-07-29T03:58:18;100545.81;;;23.03;56.41
56241;BME280;42155;53.096;23.226;2022-07-29T04:00:18;100552.06;;;24.04;53.39
56241;BME280;42155;53.096;23.226;2022-07-29T04:02:19;100542.53;;;24.90;50.95
56241;BME280;42155;53.096;23.226;2022-07-29T04:04:21;100465.13;;;25.08;49.01
56241;BME280;42155;53.096;23.226;2022-07-29T04:06:21;100543.41;;;26.19;47.43
56241;BME280;42155;53.096;23.226;2022-07-29T04:08:22;100541.53;;;26.97;45.58
56241;BME280;42155;53.096;23.226;2022-07-29T04:10:22;100546.59;;;28.20;43.31
56241;BME280;42155;53.096;23.226;2022-07-29T04:12:23;100537.22;;;29.08;41.84
56241;BME280;42155;53.096;23.226;2022-07-29T04:14:23;100545.56;;;29.97;39.69
56241;BME280;42155;53.096;23.226;2022-07-29T04:16:23;100538.75;;;30.58;38.39
56241;BME280;42155;53.096;23.226;2022-07-29T04:18:24;100541.91;;;30.90;37.33
56241;BME280;42155;53.096;23.226;2022-07-29T04:20:24;100533.41;;;31.03;36.54
56241;BME280;42155;53.096;23.226;2022-07-29T04:22:25;100537.38;;;30.96;36.83
56241;BME280;42155;53.096;23.226;2022-07-29T04:24:25;100530.53;;;31.38;35.94
56241;BME280;42155;53.096;23.226;2022-07-29T04:26:26;100530.91;;;31.92;35.22
56241;BME280;42155;53.096;23.226;2022-07-29T04:28:26;100525.53;;;32.36;33.92
56241;BME280;42155;53.096;23.226;2022-07-29T04:30:28;100522.81;;;32.58;33.15
56241;BME280;42155;53.096;23.226;2022-07-29T04:32:28;100525.81;;;32.57;32.94
56241;BME280;42155;53.096;23.226;2022-07-29T04:34:29;100526.59;;;32.52;32.79
56241;BME280;42155;53.096;23.226;2022-07-29T04:36:29;100517.66;;;32.62;33.12
56241;BME280;42155;53.096;23.226;2022-07-29T04:38:29;100516.13;;;32.32;32.85
56241;BME280;42155;53.096;23.226;2022-07-29T04:40:30;100528.44;;;32.08;33.28
56241;BME280;42155;53.096;23.226;2022-07-29T04:42:30;100520.06;;;31.35;34.25
56241;BME280;42155;53.096;23.226;2022-07-29T04:44:31;100523.09;;;30.30;36.14
56241;BME280;42155;53.096;23.226;2022-07-29T04:46:31;100526.06;;;29.21;37.60
56241;BME280;42155;53.096;23.226;2022-07-29T04:48:32;100527.06;;;28.41;39.39
56241;BME280;42155;53.096;23.226;2022-07-29T04:50:32;100533.13;;;27.75;41.05
56241;BME280;42155;53.096;23.226;2022-07-29T04:52:33;100532.56;;;27.91;40.39
56241;BME280;42155;53.096;23.226;2022-07-29T04:54:33;100525.25;;;27.60;40.82
56241;BME280;42155;53.096;23.226;2022-07-29T04:56:33;100524.22;;;26.78;41.39
56241;BME280;42155;53.096;23.226;2022-07-29T04:58:34;100528.28;;;26.42;42.65
56241;BME280;42155;53.096;23.226;2022-07-29T05:00:35;100535.22;;;26.32;42.73
56241;BME280;42155;53.096;23.226;2022-07-29T05:02:35;100539.19;;;26.36;42.22
56241;BME280;42155;53.096;23.226;2022-07-29T05:04:35;100534.44;;;25.98;42.81
56241;BME280;42155;53.096;23.226;2022-07-29T05:06:36;100531.28;;;25.61;43.83
56241;BME280;42155;53.096;23.226;2022-07-29T05:08:36;100529.53;;;25.21;44.31
56241;BME280;42155;53.096;23.226;2022-07-29T05:10:36;100522.25;;;24.86;44.57
56241;BME280;42155;53.096;23.226;2022-07-29T05:12:37;100532.06;;;24.74;45.03
56241;BME280;42155;53.096;23.226;2022-07-29T05:14:37;100533.81;;;24.54;45.76
56241;BME280;42155;53.096;23.226;2022-07-29T05:16:38;100528.59;;;24.52;45.72
56241;BME280;42155;53.096;23.226;2022-07-29T05:18:38;100534.56;;;24.76;45.48
56241;BME280;42155;53.096;23.226;2022-07-29T05:20:39;100535.66;;;24.95;44.71
56241;BME280;42155;53.096;23.226;2022-07-29T05:22:39;100530.25;;;24.95;44.50
56241;BME280;42155;53.096;23.226;2022-07-29T05:24:39;100481.25;;;24.61;45.00
56241;BME280;42155;53.096;23.226;2022-07-29T05:26:40;100535.66;;;24.95;44.80
56241;BME280;42155;53.096;23.226;2022-07-29T05:28:40;100541.53;;;25.05;45.27
56241;BME280;42155;53.096;23.226;2022-07-29T05:30:41;100532.72;;;24.89;45.13
56241;BME280;42155;53.096;23.226;2022-07-29T05:32:41;100530.84;;;24.90;45.26
56241;BME280;42155;53.096;23.226;2022-07-29T05:34:42;100536.53;;;25.02;45.74
56241;BME280;42155;53.096;23.226;2022-07-29T05:36:44;100537.06;;;25.25;44.65
56241;BME280;42155;53.096;23.226;2022-07-29T05:38:44;100540.38;;;25.21;44.91
56241;BME280;42155;53.096;23.226;2022-07-29T05:40:45;100534.75;;;25.16;45.13
56241;BME280;42155;53.096;23.226;2022-07-29T05:42:45;100541.47;;;25.33;44.69
56241;BME280;42155;53.096;23.226;2022-07-29T05:44:45;100536.25;;;25.45;44.38
56241;BME280;42155;53.096;23.226;2022-07-29T05:46:46;100547.38;;;25.56;44.54
56241;BME280;42155;53.096;23.226;2022-07-29T05:48:46;100540.47;;;25.67;44.90
56241;BME280;42155;53.096;23.226;2022-07-29T05:50:46;100546.72;;;25.74;43.71
56241;BME280;42155;53.096;23.226;2022-07-29T05:52:47;100553.47;;;25.78;43.75
56241;BME280;42155;53.096;23.226;2022-07-29T05:54:47;100550.31;;;25.75;44.25
56241;BME280;42155;53.096;23.226;2022-07-29T05:56:47;100558.09;;;25.84;44.07
56241;BME280;42155;53.096;23.226;2022-07-29T05:58:48;100554.09;;;25.94;43.87
56241;BME280;42155;53.096;23.226;2022-07-29T06:00:48;100548.88;;;25.99;43.22
56241;BME280;42155;53.096;23.226;2022-07-29T06:02:49;100549.06;;;25.77;43.97
56241;BME280;42155;53.096;23.226;2022-07-29T06:04:49;100554.31;;;25.99;43.42
56241;BME280;42155;53.096;23.226;2022-07-29T06:06:49;100552.00;;;26.09;43.58
56241;BME280;42155;53.096;23.226;2022-07-29T06:08:50;100556.84;;;25.94;43.65
56241;BME280;42155;53.096;23.226;2022-07-29T06:10:50;100556.63;;;25.88;44.14
56241;BME280;42155;53.096;23.226;2022-07-29T06:12:50;100557.66;;;26.07;43.90
56241;BME280;42155;53.096;23.226;2022-07-29T06:14:51;100546.34;;;26.30;43.22
56241;BME280;42155;53.096;23.226;2022-07-29T06:16:51;100556.34;;;26.36;42.89
56241;BME280;42155;53.096;23.226;2022-07-29T06:18:52;100561.22;;;26.21;43.54
56241;BME280;42155;53.096;23.226;2022-07-29T06:20:53;100554.50;;;26.17;43.07
56241;BME280;42155;53.096;23.226;2022-07-29T06:22:53;100561.81;;;26.10;43.79
56241;BME280;42155;53.096;23.226;2022-07-29T06:24:54;100566.44;;;26.03;44.21
56241;BME280;42155;53.096;23.226;2022-07-29T06:26:54;100561.41;;;25.86;43.84
56241;BME280;42155;53.096;23.226;2022-07-29T06:28:54;100555.31;;;25.64;45.13
56241;BME280;42155;53.096;23.226;2022-07-29T06:30:55;100557.19;;;25.57;43.99
56241;BME280;42155;53.096;23.226;2022-07-29T06:32:55;100553.19;;;25.33;44.64
56241;BME280;42155;53.096;23.226;2022-07-29T06:34:55;100560.69;;;25.31;44.91
56241;BME280;42155;53.096;23.226;2022-07-29T06:36:56;100558.22;;;25.43;45.33
56241;BME280;42155;53.096;23.226;2022-07-29T06:38:56;100556.28;;;25.37;45.13
56241;BME280;42155;53.096;23.226;2022-07-29T06:40:57;100560.28;;;25.34;45.67
56241;BME280;42155;53.096;23.226;2022-07-29T06:42:57;100550.50;;;25.53;45.63
56241;BME280;42155;53.096;23.226;2022-07-29T06:44:57;100558.03;;;25.58;45.19
56241;BME280;42155;53.096;23.226;2022-07-29T06:46:58;100552.31;;;25.26;44.74
56241;BME280;42155;53.096;23.226;2022-07-29T06:48:58;100549.38;;;25.21;45.26
56241;BME280;42155;53.096;23.226;2022-07-29T06:50:59;100546.22;;;25.11;45.61
56241;BME280;42155;53.096;23.226;2022-07-29T06:52:59;100549.97;;;25.10;45.92
56241;BME280;42155;53.096;23.226;2022-07-29T06:55:00;100545.78;;;25.07;45.28
56241;BME280;42155;53.096;23.226;2022-07-29T06:57:00;100543.81;;;24.88;46.35
56241;BME280;42155;53.096;23.226;2022-07-29T06:59:00;100548.88;;;25.04;46.23
56241;BME280;42155;53.096;23.226;2022-07-29T07:01:03;100538.47;;;25.08;46.67
56241;BME280;42155;53.096;23.226;2022-07-29T07:03:03;100515.91;;;25.07;45.70
56241;BME280;42155;53.096;23.226;2022-07-29T07:05:04;100546.44;;;25.16;46.05
56241;BME280;42155;53.096;23.226;2022-07-29T07:07:05;100547.25;;;25.10;46.46
56241;BME280;42155;53.096;23.226;2022-07-29T07:09:05;100549.97;;;25.10;44.94
56241;BME280;42155;53.096;23.226;2022-07-29T07:11:05;100551.84;;;24.68;45.26
56241;BME280;42155;53.096;23.226;2022-07-29T07:13:06;100553.47;;;24.56;46.68
56241;BME280;42155;53.096;23.226;2022-07-29T07:15:07;100537.88;;;24.71;45.86
56241;BME280;42155;53.096;23.226;2022-07-29T07:17:07;100523.53;;;24.90;45.77
56241;BME280;42155;53.096;23.226;2022-07-29T07:19:08;100530.53;;;25.13;45.37
56241;BME280;42155;53.096;23.226;2022-07-29T07:21:08;100526.16;;;25.19;44.86
56241;BME280;42155;53.096;23.226;2022-07-29T07:23:09;100513.94;;;24.95;44.31
56241;BME280;42155;53.096;23.226;2022-07-29T07:25:09;100536.72;;;24.94;45.49
56241;BME280;42155;53.096;23.226;2022-07-29T07:27:10;100527.94;;;24.92;45.65
56241;BME280;42155;53.096;23.226;2022-07-29T07:29:10;100535.66;;;24.88;44.50
56241;BME280;42155;53.096;23.226;2022-07-29T07:31:11;100539.38;;;24.80;44.57
56241;BME280;42155;53.096;23.226;2022-07-29T07:33:11;100540.19;;;24.74;44.73
56241;BME280;42155;53.096;23.226;2022-07-29T07:35:12;100541.88;;;24.75;45.84
56241;BME280;42155;53.096;23.226;2022-07-29T07:37:12;100537.34;;;24.96;44.50
56241;BME280;42155;53.096;23.226;2022-07-29T07:39:12;100536.13;;;25.05;44.40
56241;BME280;42155;53.096;23.226;2022-07-29T07:41:13;100529.50;;;25.07;44.06
56241;BME280;42155;53.096;23.226;2022-07-29T07:43:13;100536.66;;;25.28;44.83
56241;BME280;42155;53.096;23.226;2022-07-29T07:45:13;100532.06;;;25.35;44.25
56241;BME280;42155;53.096;23.226;2022-07-29T07:47:17;100534.38;;;25.38;44.44
56241;BME280;42155;53.096;23.226;2022-07-29T07:49:17;100530.78;;;25.31;42.74
56241;BME280;42155;53.096;23.226;2022-07-29T07:51:18;100524.06;;;25.14;44.18
56241;BME280;42155;53.096;23.226;2022-07-29T07:53:18;100522.97;;;25.02;43.54
56241;BME280;42155;53.096;23.226;2022-07-29T07:55:19;100527.31;;;24.89;43.90
56241;BME280;42155;53.096;23.226;2022-07-29T07:57:19;100526.44;;;24.82;45.06
56241;BME280;42155;53.096;23.226;2022-07-29T07:59:20;100529.19;;;24.96;44.36
56241;BME280;42155;53.096;23.226;2022-07-29T08:01:20;100530.69;;;25.05;44.58
56241;BME280;42155;53.096;23.226;2022-07-29T08:03:21;100533.63;;;25.03;43.76
56241;BME280;42155;53.096;23.226;2022-07-29T08:05:21;100531.06;;;24.95;44.55
56241;BME280;42155;53.096;23.226;2022-07-29T08:07:21;100529.50;;;25.14;44.80
56241;BME280;42155;53.096;23.226;2022-07-29T08:09:22;100545.59;;;25.22;45.10
56241;BME280;42155;53.096;23.226;2022-07-29T08:11:23;100549.19;;;25.36;43.08
56241;BME280;42155;53.096;23.226;2022-07-29T08:13:25;100542.94;;;25.35;41.27
56241;BME280;42155;53.096;23.226;2022-07-29T08:15:26;100550.81;;;25.17;40.84
56241;BME280;42155;53.096;23.226;2022-07-29T08:17:27;100545.75;;;25.01;41.96
56241;BME280;42155;53.096;23.226;2022-07-29T08:19:27;100549.47;;;24.93;41.74
56241;BME280;42155;53.096;23.226;2022-07-29T08:21:27;100555.72;;;25.00;42.83
56241;BME280;42155;53.096;23.226;2022-07-29T08:23:28;100552.00;;;25.01;43.55
56241;BME280;42155;53.096;23.226;2022-07-29T08:25:28;100559.63;;;25.19;42.54
56241;BME280;42155;53.096;23.226;2022-07-29T08:27:29;100554.22;;;25.46;41.84
56241;BME280;42155;53.096;23.226;2022-07-29T08:29:29;100519.50;;;25.21;42.08
56241;BME280;42155;53.096;23.226;2022-07-29T08:31:29;100551.09;;;25.49;40.78
56241;BME280;42155;53.096;23.226;2022-07-29T08:33:30;100547.97;;;25.45;40.99
56241;BME280;42155;53.096;23.226;2022-07-29T08:35:30;100546.72;;;25.48;41.88
56241;BME280;42155;53.096;23.226;2022-07-29T08:37:30;100545.47;;;25.57;41.09
56241;BME280;42155;53.096;23.226;2022-07-29T08:39:31;100542.13;;;25.55;40.18
56241;BME280;42155;53.096;23.226;2022-07-29T08:41:31;100532.31;;;25.47;41.52
56241;BME280;42155;53.096;23.226;2022-07-29T08:43:31;100550.06;;;25.63;41.10
56241;BME280;42155;53.096;23.226;2022-07-29T08:45:42;100552.66;;;25.84;42.16
56241;BME280;42155;53.096;23.226;2022-07-29T08:47:44;100542.16;;;26.08;42.44
56241;BME280;42155;53.096;23.226;2022-07-29T08:49:44;100541.72;;;26.11;40.45
56241;BME280;42155;53.096;23.226;2022-07-29T08:51:45;100542.19;;;25.95;40.93
56241;BME280;42155;53.096;23.226;2022-07-29T08:53:48;100549.31;;;25.89;40.83
56241;BME280;42155;53.096;23.226;2022-07-29T08:55:49;100553.06;;;25.95;40.56
56241;BME280;42155;53.096;23.226;2022-07-29T08:57:50;100551.13;;;25.62;41.37
56241;BME280;42155;53.096;23.226;2022-07-29T08:59:52;100555.50;;;25.43;41.65
56241;BME280;42155;53.096;23.226;2022-07-29T09:01:55;100557.13;;;25.37;42.19
56241;BME280;42155;53.096;23.226;2022-07-29T09:03:58;100553.78;;;25.35;41.89
56241;BME280;42155;53.096;23.226;2022-07-29T09:05:59;100552.34;;;25.39;41.29
56241;BME280;42155;53.096;23.226;2022-07-29T09:08:01;100549.44;;;25.48;40.96
56241;BME280;42155;53.096;23.226;2022-07-29T09:10:04;100546.94;;;25.59;40.36
56241;BME280;42155;53.096;23.226;2022-07-29T09:12:04;100547.56;;;25.68;40.17
56241;BME280;42155;53.096;23.226;2022-07-29T09:14:05;100554.91;;;25.68;39.32
56241;BME280;42155;53.096;23.226;2022-07-29T09:16:05;100549.03;;;25.64;38.27
56241;BME280;42155;53.096;23.226;2022-07-29T09:18:06;100521.59;;;25.32;39.97
56241;BME280;42155;53.096;23.226;2022-07-29T09:20:11;100520.78;;;25.38;39.76
56241;BME280;42155;53.096;23.226;2022-07-29T09:22:11;100544.66;;;25.63;38.80
56241;BME280;42155;53.096;23.226;2022-07-29T09:24:13;100548.84;;;25.65;38.46
56241;BME280;42155;53.096;23.226;2022-07-29T09:26:13;100544.44;;;25.58;39.59
56241;BME280;42155;53.096;23.226;2022-07-29T09:28:16;100552.59;;;25.58;39.36
56241;BME280;42155;53.096;23.226;2022-07-29T09:30:16;100529.78;;;25.39;40.11
56241;BME280;42155;53.096;23.226;2022-07-29T09:32:17;100537.94;;;25.39;39.14
56241;BME280;42155;53.096;23.226;2022-07-29T09:34:28;100547.75;;;25.33;40.16
56241;BME280;42155;53.096;23.226;2022-07-29T09:36:29;100545.66;;;25.49;39.76
56241;BME280;42155;53.096;23.226;2022-07-29T09:38:29;100546.28;;;25.44;38.61
56241;BME280;42155;53.096;23.226;2022-07-29T09:40:29;100538.75;;;25.39;38.66
56241;BME280;42155;53.096;23.226;2022-07-29T09:42:30;100542.56;;;25.52;39.41
56241;BME280;42155;53.096;23.226;2022-07-29T09:44:49;100547.97;;;25.65;38.56
56241;BME280;42155;53.096;23.226;2022-07-29T09:47:01;100543.59;;;25.64;37.83
56241;BME280;42155;53.096;23.226;2022-07-29T09:49:12;100553.81;;;25.49;37.35
56241;BME280;42155;53.096;23.226;2022-07-29T09:51:19;100539.59;;;25.33;36.66
56241;BME280;42155;53.096;23.226;2022-07-29T09:55:30;100549.63;;;25.46;38.20
56241;BME280;42155;53.096;23.226;2022-07-29T09:57:31;100542.13;;;25.68;38.75
56241;BME280;42155;53.096;23.226;2022-07-29T09:59:31;100541.78;;;25.84;38.07
56241;BME280;42155;53.096;23.226;2022-07-29T10:01:32;100480.84;;;25.46;37.25
56241;BME280;42155;53.096;23.226;2022-07-29T10:03:32;100531.25;;;25.68;37.05
56241;BME280;42155;53.096;23.226;2022-07-29T10:05:32;100529.81;;;25.72;38.63
56241;BME280;42155;53.096;23.226;2022-07-29T10:07:53;100523.31;;;25.73;37.14
56241;BME280;42155;53.096;23.226;2022-07-29T10:09:56;100532.13;;;25.75;36.75
56241;BME280;42155;53.096;23.226;2022-07-29T10:12:11;100529.56;;;25.40;36.36
56241;BME280;42155;53.096;23.226;2022-07-29T10:14:11;100521.19;;;25.29;37.64
56241;BME280;42155;53.096;23.226;2022-07-29T10:16:13;100511.13;;;25.16;38.32
56241;BME280;42155;53.096;23.226;2022-07-29T10:18:14;100526.19;;;25.25;36.90
56241;BME280;42155;53.096;23.226;2022-07-29T10:20:15;100528.69;;;25.20;38.10
56241;BME280;42155;53.096;23.226;2022-07-29T10:22:16;100520.25;;;25.02;38.29
56241;BME280;42155;53.096;23.226;2022-07-29T10:24:16;100522.25;;;24.86;37.40
56241;BME280;42155;53.096;23.226;2022-07-29T10:26:17;100520.38;;;24.80;37.86
56241;BME280;42155;53.096;23.226;2022-07-29T10:28:18;100521.66;;;24.84;38.44
56241;BME280;42155;53.096;23.226;2022-07-29T10:30:20;100516.94;;;25.06;38.89
56241;BME280;42155;53.096;23.226;2022-07-29T10:40:22;100504.69;;;25.30;37.74
56241;BME280;42155;53.096;23.226;2022-07-29T10:42:29;100508.00;;;25.19;38.81
56241;BME280;42155;53.096;23.226;2022-07-29T10:44:30;100519.06;;;25.11;38.66
56241;BME280;42155;53.096;23.226;2022-07-29T10:46:36;100513.56;;;25.04;37.72